Time;durP1;ratioP1;P1;durP2;ratioP2;P2;SDS_P1;SDS_P2;PMS_P1;PMS_P2;Temp;Humidity;BMP_temperature;BMP_pressure;BME280_temperature;BME280_humidity;BME280_pressure;Samples;Min_cycle;Max_cycle;Signal;HPM_P1;HPM_P2
2021/11/18 00:01:47;;;;;;;6.97;5.47;;;7.30;96.00;;;7.49;68.42;98686.06;5006555;28;20062;-39
2021/11/18 00:04:15;;;;;;;6.27;4.90;;;7.20;95.90;;;7.48;68.15;98695.81;5005141;28;20391;-39
2021/11/18 00:06:44;;;;;;;7.63;5.37;;;7.30;96.20;;;7.47;68.12;98694.13;5005353;28;20073;-39
2021/11/18 00:09:12;;;;;;;9.70;6.37;;;7.20;96.10;;;7.46;68.61;98691.59;5006903;28;20064;-39
2021/11/18 00:11:40;;;;;;;15.67;7.57;;;7.20;96.20;;;7.45;68.18;98688.09;5006410;28;20069;-41
2021/11/18 00:14:09;;;;;;;13.20;7.73;;;7.20;96.30;;;7.44;68.26;98699.66;5005933;28;20045;-39
2021/11/18 00:16:38;;;;;;;14.93;7.80;;;7.20;96.30;;;7.44;68.38;98691.72;5006244;28;20050;-39
2021/11/18 00:19:07;;;;;;;9.40;5.93;;;7.20;96.50;;;7.43;68.59;98694.47;5005023;28;20068;-39
2021/11/18 00:21:41;;;;;;;9.43;6.10;;;7.20;96.70;;;7.42;68.28;98692.78;5005520;28;20045;-39
2021/11/18 00:24:12;;;;;;;17.17;9.63;;;7.20;97.10;;;7.43;68.38;98703.25;5004492;28;20049;-39
2021/11/18 00:26:41;;;;;;;16.77;8.83;;;7.20;97.30;;;7.42;68.39;98693.63;5009230;28;20053;-39
2021/11/18 00:29:09;;;;;;;14.07;8.43;;;7.20;97.50;;;7.43;68.84;98695.31;5024377;28;20067;-39
2021/11/18 00:31:39;;;;;;;23.87;11.87;;;7.10;97.80;;;7.44;68.97;98696.16;5024739;28;20057;-39
2021/11/18 00:34:08;;;;;;;25.00;11.57;;;7.20;98.00;;;7.43;68.93;98692.66;5024843;28;20049;-39
2021/11/18 00:36:36;;;;;;;34.43;13.10;;;7.10;98.20;;;7.43;69.04;98687.38;5024326;28;20053;-39
2021/11/18 00:39:05;;;;;;;25.97;12.80;;;7.20;98.30;;;7.44;68.60;98696.16;5024233;28;20390;-39
2021/11/18 00:41:35;;;;;;;20.60;10.77;;;7.20;98.70;;;7.44;68.95;98702.31;5025879;28;20057;-39
2021/11/18 00:44:06;;;;;;;14.13;8.77;;;7.20;98.70;;;7.45;69.16;98698.69;5025171;28;20075;-39
2021/11/18 00:46:35;;;;;;;15.97;8.20;;;7.20;98.90;;;7.45;69.15;98695.22;5024340;28;20042;-39
2021/11/18 00:49:04;;;;;;;10.30;6.40;;;7.20;98.70;;;7.44;68.78;98699.66;5023804;28;20360;-39
2021/11/18 00:51:33;;;;;;;9.90;6.00;;;7.20;98.70;;;7.45;68.73;98688.09;5024328;28;20061;-39
2021/11/18 00:54:06;;;;;;;11.47;6.93;;;7.20;98.80;;;7.44;69.19;98693.50;5024603;28;20041;-39
2021/11/18 00:56:35;;;;;;;16.45;8.70;;;7.20;98.80;;;7.43;68.92;98692.66;5024722;28;20045;-39
2021/11/18 00:59:08;;;;;;;14.33;8.07;;;7.20;98.90;;;7.45;68.90;98696.03;5023628;28;20053;-39
2021/11/18 01:01:43;;;;;;;9.07;5.70;;;7.20;99.00;;;7.45;69.42;98697.84;5024023;28;20081;-39
2021/11/18 01:04:17;;;;;;;9.30;5.70;;;7.20;99.00;;;7.46;69.09;98694.22;5023819;28;20065;-39
2021/11/18 01:06:47;;;;;;;12.57;7.00;;;7.20;98.90;;;7.47;69.19;98690.63;5023103;28;20244;-39
2021/11/18 01:09:16;;;;;;;11.20;6.27;;;7.20;98.90;;;7.46;69.30;98691.59;5026310;28;20079;-39
2021/11/18 01:11:45;;;;;;;12.77;7.27;;;7.20;98.80;;;7.46;69.16;98694.22;5022937;28;20053;-39
2021/11/18 01:14:18;;;;;;;14.87;7.07;;;7.20;99.00;;;7.47;69.54;98696.78;5022226;28;20053;-39
2021/11/18 01:16:48;;;;;;;14.43;7.03;;;7.10;98.90;;;7.46;69.07;98688.94;5024330;28;20060;-39
2021/11/18 01:19:18;;;;;;;14.67;8.13;;;7.20;99.00;;;7.45;69.08;98688.09;5022233;28;20067;-38
2021/11/18 01:21:50;;;;;;;9.47;6.53;;;7.20;99.10;;;7.43;68.99;98691.84;5023819;28;20065;-39
2021/11/18 01:24:20;;;;;;;8.20;6.28;;;7.20;99.40;;;7.43;69.36;98702.44;5022041;28;20057;-39
2021/11/18 01:27:11;;;;;;;13.33;5.83;;;7.20;99.60;;;7.45;69.40;98713.75;5023689;28;20057;-38
2021/11/18 01:29:41;;;;;;;13.63;7.43;;;7.20;99.70;;;7.45;69.08;98706.63;5025160;28;20213;-39
2021/11/18 01:32:09;;;;;;;16.03;7.37;;;7.20;99.60;;;7.46;69.05;98716.28;5025525;28;20061;-38
2021/11/18 01:34:40;;;;;;;9.27;6.07;;;7.20;99.60;;;7.41;69.35;98715.78;5023482;28;20247;-38
2021/11/18 01:37:09;;;;;;;8.37;5.00;;;7.20;99.70;;;7.42;69.56;98714.81;5023901;28;20221;-39
2021/11/18 01:39:38;;;;;;;6.87;4.90;;;7.20;99.90;;;7.42;69.49;98721.91;5024258;28;20056;-38
2021/11/18 01:42:07;;;;;;;8.57;5.90;;;7.20;99.90;;;7.42;69.31;98725.41;5027801;28;20248;-38
2021/11/18 01:44:45;;;;;;;8.10;5.83;;;7.20;99.90;;;7.43;69.65;98728.94;5026900;28;20068;-39
2021/11/18 01:47:15;;;;;;;6.47;5.07;;;7.20;99.90;;;7.42;69.57;98727.22;5026763;28;20057;-38
2021/11/18 01:49:46;;;;;;;7.70;4.70;;;7.20;99.90;;;7.41;69.12;98730.84;5027798;28;20061;-39
2021/11/18 01:52:21;;;;;;;7.10;4.67;;;7.10;99.90;;;7.42;69.79;98720.09;5028552;28;20061;-39
2021/11/18 01:54:50;;;;;;;5.73;4.70;;;7.20;99.90;;;7.42;69.37;98717.47;5027693;28;20240;-39
2021/11/18 01:57:27;;;;;;;6.77;4.80;;;7.20;99.90;;;7.44;69.62;98718.22;5043882;28;20049;-39
2021/11/18 02:00:16;;;;;;;6.93;5.30;;;7.20;99.90;;;7.44;69.62;98720.00;5041648;28;20344;-39
2021/11/18 02:02:49;;;;;;;7.90;4.78;;;7.30;99.90;;;7.45;69.88;98719.88;5025878;28;20063;-39
2021/11/18 02:05:35;;;;;;;7.40;4.77;;;7.20;99.90;;;7.45;69.33;98721.69;5027866;28;20267;-39
2021/11/18 02:08:08;;;;;;;9.13;5.43;;;7.20;99.90;;;7.46;69.70;98720.72;5043652;28;20053;-39
2021/11/18 02:10:54;;;;;;;7.90;5.00;;;7.30;99.90;;;7.47;69.76;98725.09;5042758;28;20260;-39
2021/11/18 02:13:24;;;;;;;9.32;5.55;;;7.30;99.90;;;7.48;69.45;98727.63;5029438;28;20049;-39
2021/11/18 02:15:59;;;;;;;10.30;6.50;;;7.20;99.90;;;7.48;69.34;98718.81;5044328;28;20050;-39
2021/11/18 02:18:34;;;;;;;10.57;6.57;;;7.20;99.90;;;7.46;69.67;98711.00;5026694;28;20280;-39
2021/11/18 02:21:14;;;;;;;9.87;5.63;;;7.20;99.90;;;7.46;69.89;98718.94;5044350;28;20060;-39
2021/11/18 02:23:58;;;;;;;9.20;5.23;;;7.20;99.90;;;7.46;69.63;98728.69;5027050;28;20122;-39
2021/11/18 02:26:27;;;;;;;9.25;5.57;;;7.20;99.90;;;7.47;69.49;98725.91;5028233;28;20046;-39
2021/11/18 02:29:01;;;;;;;8.17;5.23;;;7.20;99.90;;;7.47;69.70;98730.38;5026355;28;20061;-39
2021/11/18 02:31:43;;;;;;;9.03;5.60;;;7.20;99.90;;;7.47;69.72;98741.81;5027060;28;20057;-39
2021/11/18 02:34:19;;;;;;;8.00;5.70;;;7.20;99.90;;;7.46;69.55;98755.16;5026695;28;20321;-39
2021/11/18 02:36:47;;;;;;;6.60;4.63;;;7.20;99.90;;;7.45;69.42;98754.34;5026034;28;20068;-39
2021/11/18 02:39:16;;;;;;;8.10;5.53;;;7.20;99.90;;;7.44;69.87;98752.66;5024453;28;20060;-39
2021/11/18 02:41:45;;;;;;;8.53;5.43;;;7.10;99.90;;;7.44;69.85;98752.66;5042894;28;20049;-39
2021/11/18 02:44:13;;;;;;;8.07;6.23;;;7.20;99.90;;;7.45;69.66;98758.81;5025928;28;20061;-39
2021/11/18 02:46:41;;;;;;;8.10;5.67;;;7.20;99.90;;;7.38;69.79;98761.03;5026222;28;20065;-40
2021/11/18 02:49:10;;;;;;;8.10;5.37;;;7.10;99.90;;;7.35;69.89;98756.00;5041524;28;20049;-39
2021/11/18 02:51:37;;;;;;;9.70;6.33;;;7.10;99.90;;;7.37;69.70;98759.38;5043865;28;20053;-39
2021/11/18 02:54:10;;;;;;;10.00;6.33;;;7.10;99.90;;;7.37;69.91;98758.53;5027692;28;20050;-39
2021/11/18 02:56:39;;;;;;;10.90;6.50;;;7.10;99.90;;;7.39;70.39;98760.09;5026576;28;20049;-40
2021/11/18 02:59:08;;;;;;;9.93;6.50;;;7.20;99.90;;;7.41;70.14;98766.13;5026325;28;20076;-39
2021/11/18 03:01:43;;;;;;;9.03;6.80;;;7.20;99.90;;;7.40;69.94;98764.41;5025695;28;20057;-40
2021/11/18 03:04:11;;;;;;;;;;;7.20;99.90;;;7.39;70.03;98776.00;5027809;28;20049;-39
2021/11/18 03:06:42;;;;;;;9.20;5.90;;;7.20;99.90;;;7.40;70.02;98758.28;5025976;28;19961;-38
2021/11/18 03:09:10;;;;;;;12.50;6.93;;;7.20;99.90;;;7.40;70.06;98758.28;5025620;28;20063;-38
2021/11/18 03:11:40;;;;;;;13.47;7.90;;;7.20;99.90;;;7.41;70.13;98765.28;5025338;28;20065;-39
2021/11/18 03:14:09;;;;;;;11.50;7.63;;;7.20;99.90;;;7.43;70.11;98760.72;5040009;28;20055;-39
2021/11/18 03:16:47;;;;;;;16.13;9.87;;;7.20;99.90;;;7.45;70.58;98762.28;5026316;28;20041;-39
2021/11/18 03:19:23;;;;;;;11.23;8.40;;;7.20;99.90;;;7.49;70.54;98754.97;5041228;28;20059;-39
2021/11/18 03:21:53;;;;;;;10.30;7.40;;;7.30;99.90;;;7.49;70.04;98752.31;5041005;28;20257;-39
2021/11/18 03:24:23;;;;;;;12.57;7.47;;;7.30;99.90;;;7.49;70.41;98758.44;5027127;28;20053;-39
2021/11/18 03:26:53;;;;;;;11.33;6.73;;;7.30;99.90;;;7.51;69.89;98762.78;5041532;28;20067;-38
2021/11/18 03:29:24;;;;;;;10.90;7.27;;;7.30;99.90;;;7.51;70.06;98757.50;5025754;28;20053;-38
2021/11/18 03:31:53;;;;;;;11.10;7.27;;;7.30;99.90;;;7.52;70.15;98756.53;5026598;28;20076;-38
2021/11/18 03:34:29;;;;;;;11.77;7.30;;;7.30;99.90;;;7.52;70.57;98767.97;5023878;28;20371;-38
2021/11/18 03:36:58;;;;;;;11.30;7.40;;;7.30;99.90;;;7.54;70.60;98762.56;5025851;28;20051;-38
2021/11/18 03:39:27;;;;;;;10.33;6.60;;;7.30;99.90;;;7.54;70.66;98758.13;5023444;28;20049;-38
2021/11/18 03:42:03;;;;;;;11.87;7.57;;;7.30;99.90;;;7.55;70.47;98761.59;5025640;28;20148;-38
2021/11/18 03:44:32;;;;;;;12.35;6.88;;;7.30;99.90;;;7.55;70.57;98757.13;5027013;28;20050;-38
2021/11/18 03:47:09;;;;;;;10.93;7.13;;;7.30;99.90;;;7.56;70.38;98755.31;5023638;28;20061;-39
2021/11/18 03:49:41;;;;;;;12.40;7.53;;;7.40;99.90;;;7.55;70.26;98759.78;5041333;28;20370;-39
2021/11/18 03:52:13;;;;;;;10.13;6.73;;;7.40;99.90;;;7.57;70.45;98757.03;5025566;28;20071;-39
2021/11/18 03:54:44;;;;;;;11.53;6.70;;;7.40;99.90;;;7.58;70.71;98774.59;5026221;28;20049;-39
2021/11/18 03:57:15;;;;;;;11.23;7.40;;;7.40;99.90;;;7.58;70.27;98791.38;5026163;28;20360;-39
2021/11/18 03:59:51;;;;;;;12.27;7.17;;;7.40;99.90;;;7.58;70.37;98793.16;5025276;28;20055;-39
2021/11/18 04:02:20;;;;;;;9.63;6.57;;;7.30;99.90;;;7.56;70.56;98803.91;5023603;28;20067;-39
2021/11/18 04:04:56;;;;;;;10.17;7.00;;;7.30;99.90;;;7.56;70.54;98809.19;5024117;28;20063;-39
2021/11/18 04:07:27;;;;;;;13.20;7.77;;;7.30;99.90;;;7.57;70.75;98796.78;5040999;28;20359;-39
2021/11/18 04:09:55;;;;;;;12.53;7.30;;;7.40;99.90;;;7.59;70.44;98795.69;5024805;28;20057;-39
2021/11/18 04:12:23;;;;;;;10.93;6.60;;;7.40;99.90;;;7.61;70.47;98795.59;5042230;28;20276;-39
2021/11/18 04:14:51;;;;;;;12.33;7.13;;;7.40;99.90;;;7.61;70.60;98803.53;5041783;28;20055;-39
2021/11/18 04:17:19;;;;;;;16.73;10.50;;;7.40;99.90;;;7.60;70.67;98802.72;5039839;28;20053;-38
2021/11/18 04:19:48;;;;;;;10.60;7.13;;;7.40;99.90;;;7.61;70.37;98798.25;5024335;28;20064;-38
2021/11/18 04:22:16;;;;;;;11.47;6.80;;;7.40;99.90;;;7.61;70.43;98788.47;5025277;28;20359;-39
2021/11/18 04:24:46;;;;;;;11.40;7.70;;;7.40;99.90;;;7.61;70.65;98783.19;5023927;28;20063;-39
2021/11/18 04:27:15;;;;;;;11.73;7.17;;;7.40;99.90;;;7.64;70.72;98795.38;5024457;28;20057;-39
2021/11/18 04:29:43;;;;;;;12.57;8.10;;;7.40;99.90;;;7.56;70.64;98803.03;5025612;28;20060;-39
2021/11/18 04:32:23;;;;;;;15.80;9.10;;;7.30;99.90;;;7.52;70.39;98805.06;5025496;28;20065;-39
2021/11/18 04:34:56;;;;;;;12.15;7.90;;;7.30;99.90;;;7.49;70.64;98808.78;5040965;28;20057;-39
2021/11/18 04:37:25;;;;;;;14.93;8.67;;;7.20;99.90;;;7.49;70.60;98813.25;5040160;28;20050;-39
2021/11/18 04:39:53;;;;;;;15.03;8.83;;;7.20;99.90;;;7.47;70.47;98818.66;5024234;28;20438;-39
2021/11/18 04:42:21;;;;;;;13.77;8.80;;;7.20;99.90;;;7.44;70.89;98824.19;5024550;28;20239;-39
2021/11/18 04:45:13;;;;;;;15.30;8.43;;;7.20;99.90;;;7.32;70.78;98821.59;5022937;28;20244;-39
2021/11/18 04:47:42;;;;;;;12.88;8.32;;;7.00;99.90;;;7.25;71.28;98823.81;5024164;28;20267;-39
2021/11/18 04:50:12;;;;;;;14.13;9.80;;;6.90;99.90;;;7.23;71.39;98826.59;5007041;28;20374;-38
2021/11/18 04:52:41;;;;;;;16.87;10.90;;;6.90;99.90;;;7.24;71.04;98832.75;5024132;28;20065;-39
2021/11/18 04:55:13;;;;;;;18.07;9.30;;;6.90;99.90;;;7.24;71.17;98828.28;5023185;28;20057;-39
2021/11/18 04:57:41;;;;;;;14.20;8.97;;;7.00;99.90;;;7.24;71.20;98827.44;5023937;28;20049;-38
2021/11/18 05:00:18;;;;;;;14.40;8.87;;;7.00;99.90;;;7.25;71.14;98829.13;5040358;28;20065;-38
2021/11/18 05:02:48;;;;;;;16.23;9.23;;;7.00;99.90;;;7.20;71.59;98828.63;5025422;28;20049;-38
2021/11/18 05:05:19;;;;;;;17.40;9.83;;;7.00;99.90;;;7.21;71.21;98823.22;5024126;28;20265;-39
2021/11/18 05:07:47;;;;;;;15.67;9.97;;;7.00;99.90;;;7.18;71.40;98830.53;5022078;28;20252;-39
2021/11/18 05:10:16;;;;;;;14.77;9.20;;;6.90;99.90;;;7.21;71.24;98825.00;5023797;28;20409;-39
2021/11/18 05:12:45;;;;;;;15.13;9.07;;;7.00;99.90;;;7.25;71.37;98826.47;5022868;28;20049;-40
2021/11/18 05:15:22;;;;;;;13.97;8.57;;;7.10;99.90;;;7.29;71.54;98830.63;5024340;28;20050;-39
2021/11/18 05:17:51;;;;;;;13.67;7.90;;;7.10;99.90;;;7.32;71.23;98822.44;5028937;28;20270;-39
2021/11/18 05:20:22;;;;;;;12.43;8.10;;;7.10;99.90;;;7.33;71.74;98826.78;5045743;28;20057;-39
2021/11/18 05:22:51;;;;;;;14.33;9.87;;;7.10;99.90;;;7.28;71.37;98829.75;5028936;28;20053;-39
2021/11/18 05:25:26;;;;;;;14.47;9.43;;;7.10;99.90;;;7.24;71.68;98827.44;5044193;28;20053;-40
2021/11/18 05:27:59;;;;;;;14.20;9.63;;;7.00;99.90;;;7.24;71.95;98830.94;5044176;28;20057;-39
2021/11/18 05:30:29;;;;;;;15.53;10.03;;;7.00;99.90;;;7.21;71.45;98839.13;5044786;28;20061;-39
2021/11/18 05:33:04;;;;;;;18.70;10.30;;;7.00;99.90;;;7.22;71.29;98834.66;5029513;28;20059;-40
2021/11/18 05:35:33;;;;;;;14.88;8.35;;;6.90;99.90;;;7.24;71.77;98840.69;5028429;28;20239;-39
2021/11/18 05:38:03;;;;;;;15.33;8.57;;;7.00;99.90;;;7.21;71.72;98836.47;5027367;28;20061;-39
2021/11/18 05:40:34;;;;;;;14.33;8.93;;;6.90;99.90;;;7.20;71.93;98845.34;5027492;28;20068;-39
2021/11/18 05:43:02;;;;;;;14.70;8.63;;;7.00;99.90;;;7.17;71.72;98848.22;5028185;28;20056;-39
2021/11/18 05:45:34;;;;;;;14.80;10.10;;;7.00;99.90;;;7.06;71.87;98845.50;5027989;28;20058;-39
2021/11/18 05:48:15;;;;;;;15.67;9.30;;;6.90;99.90;;;7.07;72.29;98848.03;5026489;28;20543;-39
2021/11/18 05:50:55;;;;;;;18.00;10.45;;;6.90;99.90;;;7.12;72.33;98855.66;5026682;28;20053;-39
2021/11/18 05:53:30;;;;;;;16.00;10.30;;;6.90;99.90;;;7.13;72.17;98853.84;5027711;28;20053;-39
2021/11/18 05:56:02;;;;;;;17.02;11.95;;;6.90;99.90;;;7.08;71.75;98856.84;5044584;28;20053;-39
2021/11/18 05:58:32;;;;;;;15.68;10.52;;;6.90;99.90;;;7.12;72.28;98860.97;5043143;28;20251;-40
2021/11/18 06:01:04;;;;;;;15.30;9.80;;;6.90;99.90;;;7.19;72.31;98862.22;5026643;28;20251;-40
2021/11/18 06:03:35;;;;;;;18.30;9.70;;;7.00;99.90;;;7.24;72.28;98860.06;5028344;28;20061;-39
2021/11/18 06:06:05;;;;;;;16.30;9.93;;;7.10;99.90;;;7.26;71.62;98857.31;5043006;28;20251;-39
2021/11/18 06:08:33;;;;;;;15.00;9.20;;;7.10;99.90;;;7.26;71.95;98862.63;5042433;28;20263;-39
2021/11/18 06:11:08;;;;;;;16.73;9.43;;;7.00;99.90;;;7.30;71.60;98861.44;5025251;28;20057;-39
2021/11/18 06:13:38;;;;;;;16.93;9.53;;;7.10;99.90;;;7.28;72.26;98861.53;5025748;28;20049;-40
2021/11/18 06:16:09;;;;;;;18.70;10.03;;;7.10;99.90;;;7.28;71.70;98858.88;5027550;28;20240;-39
2021/11/18 06:18:37;;;;;;;18.77;10.63;;;7.10;99.90;;;7.26;72.20;98862.63;5026985;28;20059;-39
2021/11/18 06:21:10;;;;;;;18.17;9.90;;;7.00;99.90;;;7.26;71.64;98860.81;5027219;28;20375;-39
2021/11/18 06:23:39;;;;;;;16.37;9.83;;;7.00;99.90;;;7.28;72.18;98863.34;5026833;28;20049;-39
2021/11/18 06:26:07;;;;;;;16.20;9.10;;;7.10;99.90;;;7.31;72.12;98873.72;5025833;28;20061;-40
2021/11/18 06:28:35;;;;;;;16.27;10.33;;;7.20;99.90;;;7.33;72.14;98876.25;5026654;28;20328;-39
2021/11/18 06:31:10;;;;;;;17.53;9.63;;;7.10;99.90;;;7.37;72.20;98883.88;5025023;28;20057;-39
2021/11/18 06:33:44;;;;;;;15.20;8.80;;;7.20;99.90;;;7.39;72.03;98871.38;5027152;28;20332;-39
2021/11/18 06:36:12;;;;;;;14.07;9.57;;;7.20;99.90;;;7.38;72.03;98874.13;5042002;28;20364;-39
2021/11/18 06:38:44;;;;;;;13.10;8.67;;;7.20;99.90;;;7.41;72.03;98871.28;5027851;28;20370;-39
2021/11/18 06:41:15;;;;;;;18.10;9.63;;;7.30;99.90;;;7.44;71.94;98878.97;5043154;28;20650;-39
2021/11/18 06:43:45;;;;;;;18.30;10.90;;;7.20;99.90;;;7.45;72.04;98886.81;5026753;28;20049;-39
2021/11/18 06:46:16;;;;;;;20.37;10.83;;;7.20;99.90;;;7.48;71.53;98886.59;5043788;28;20057;-39
2021/11/18 06:48:45;;;;;;;16.83;10.43;;;7.30;99.90;;;7.50;71.80;98899.72;5026991;28;20243;-39
2021/11/18 06:51:22;;;;;;;15.70;8.93;;;7.30;99.90;;;7.50;71.55;98889.13;5042308;28;20263;-39
2021/11/18 06:53:55;;;;;;;17.67;10.90;;;7.30;99.90;;;7.51;71.41;98898.78;5025114;28;20067;-39
2021/11/18 06:56:29;;;;;;;14.50;7.90;;;7.30;99.90;;;7.49;72.00;98895.41;5026699;28;20055;-38
2021/11/18 06:58:58;;;;;;;13.27;7.97;;;7.30;99.90;;;7.51;71.71;98890.81;5041660;28;20806;-39
2021/11/18 07:01:32;;;;;;;13.18;8.32;;;7.30;99.90;;;7.51;71.47;98906.72;5025801;28;20054;-39
2021/11/18 07:04:02;;;;;;;13.97;8.43;;;7.30;99.90;;;7.52;71.68;98913.69;5025299;28;20063;-39
2021/11/18 07:06:32;;;;;;;11.47;6.93;;;7.30;99.90;;;7.51;71.71;98916.50;5024097;28;20385;-39
2021/11/18 07:09:08;;;;;;;13.10;8.23;;;7.30;99.90;;;7.53;71.78;98919.88;5025363;28;20447;-39
2021/11/18 07:11:41;;;;;;;12.50;7.33;;;7.30;99.90;;;7.55;71.52;98931.22;5041871;28;20068;-39
2021/11/18 07:14:09;;;;;;;11.20;6.40;;;7.40;99.90;;;7.58;71.40;98928.31;5025188;28;20072;-39
2021/11/18 07:16:38;;;;;;;14.83;8.23;;;7.40;99.90;;;7.56;71.52;98923.16;5041798;28;20057;-39
2021/11/18 07:19:07;;;;;;;11.00;7.73;;;7.40;99.90;;;7.58;71.40;98926.53;5026104;28;20056;-40
2021/11/18 07:21:36;;;;;;;16.33;9.07;;;7.40;99.90;;;7.61;71.07;98928.94;5025947;28;20057;-39
2021/11/18 07:24:06;;;;;;;12.50;8.00;;;7.40;99.90;;;7.62;71.69;98943.06;5025753;28;20059;-39
2021/11/18 07:26:37;;;;;;;11.77;7.20;;;7.40;99.90;;;7.59;71.24;98943.28;5023887;28;20356;-40
2021/11/18 07:29:09;;;;;;;12.23;6.80;;;7.40;99.90;;;7.54;71.26;98942.75;5041134;28;20056;-39
2021/11/18 07:31:38;;;;;;;13.77;8.50;;;7.30;99.90;;;7.52;71.92;98947.31;5025069;28;20065;-41
2021/11/18 07:34:08;;;;;;;14.83;9.53;;;7.30;99.90;;;7.52;71.76;98955.25;5025018;28;20061;-40
2021/11/18 07:36:39;;;;;;;13.50;8.37;;;7.30;99.90;;;7.51;71.57;98958.88;5025501;28;20053;-41
2021/11/18 07:39:18;;;;;;;10.53;6.97;;;7.30;99.90;;;7.49;71.14;98964.28;5023596;28;20358;-41
2021/11/18 07:41:53;;;;;;;13.70;7.53;;;7.30;99.90;;;7.45;71.37;98968.97;5043116;28;20626;-41
2021/11/18 07:44:40;;;;;;;12.13;7.33;;;7.20;99.90;;;7.47;71.67;98966.22;5031682;28;20055;-40
2021/11/18 07:47:26;;;;;;;14.03;8.83;;;7.20;99.90;;;7.52;71.67;98968.53;5029158;28;20252;-41
2021/11/18 07:49:55;;;;;;;12.70;7.77;;;7.30;99.90;;;7.54;71.94;98969.25;5040774;28;20061;-40
2021/11/18 07:52:23;;;;;;;14.47;8.27;;;7.40;99.90;;;7.55;72.02;98963.00;5040898;28;20363;-40
2021/11/18 07:54:51;;;;;;;11.50;7.77;;;7.40;99.90;;;7.59;71.64;98969.78;5041450;28;20053;-40
2021/11/18 07:57:19;;;;;;;13.87;8.57;;;7.40;99.90;;;7.59;71.79;98969.78;5040340;28;20055;-40
2021/11/18 07:59:48;;;;;;;14.53;7.53;;;7.50;99.90;;;7.59;71.70;98970.63;5023920;28;20252;-40
2021/11/18 08:02:16;;;;;;;11.87;7.67;;;7.40;99.90;;;7.59;71.71;98962.66;5041276;28;20065;-40
2021/11/18 08:04:44;;;;;;;10.93;7.17;;;7.40;99.90;;;7.61;71.56;98957.25;5024308;28;20060;-39
2021/11/18 08:07:12;;;;;;;13.43;7.83;;;7.40;99.90;;;7.56;71.56;98962.91;5035817;28;20049;-39
2021/11/18 08:09:40;;;;;;;12.33;8.37;;;7.40;99.90;;;7.49;71.89;98967.78;5020577;28;20264;-39
2021/11/18 08:12:08;;;;;;;12.13;7.83;;;7.30;99.90;;;7.48;71.42;98963.44;5021384;28;20053;-39
2021/11/18 08:14:36;;;;;;;13.20;8.27;;;7.20;99.90;;;7.47;71.56;98953.81;5020834;28;20061;-39
2021/11/18 08:17:04;;;;;;;13.70;7.87;;;7.30;99.90;;;7.45;71.87;98965.47;5005475;28;20669;-39
2021/11/18 08:19:32;;;;;;;11.67;7.07;;;7.30;99.90;;;7.48;71.93;98963.44;5004917;28;20068;-39
2021/11/18 08:22:11;;;;;;;14.07;8.37;;;7.30;99.90;;;7.52;71.85;98956.09;5005772;28;20058;-40
2021/11/18 08:24:39;;;;;;;12.43;6.90;;;7.40;99.90;;;7.55;71.95;98963.84;5004579;28;20061;-40
2021/11/18 08:31:45;;;;;;;11.37;7.77;;;7.50;99.90;;;7.57;71.58;98974.34;5022204;28;20107;-40
2021/11/18 08:34:28;;;;;;;12.35;7.10;;;7.40;99.90;;;7.61;71.66;98986.41;5023515;28;20233;-40
2021/11/18 08:37:05;;;;;;;13.10;7.03;;;7.50;99.90;;;7.62;71.71;98985.47;5023163;28;20358;-40
2021/11/18 08:39:36;;;;;;;11.47;7.90;;;7.50;99.90;;;7.61;71.75;98984.59;5024766;28;20067;-40
2021/11/18 08:42:12;;;;;;;12.67;7.53;;;7.50;99.90;;;7.60;71.43;98982.94;5023557;28;20060;-40
2021/11/18 08:44:41;;;;;;;12.00;7.37;;;7.50;99.90;;;7.63;71.85;98982.69;5024621;28;20057;-40
2021/11/18 08:47:12;;;;;;;15.27;8.00;;;7.50;99.90;;;7.67;71.96;98994.75;5024568;28;20239;-40
2021/11/18 08:49:41;;;;;;;13.57;8.07;;;7.60;99.90;;;7.72;71.49;98993.63;5041780;28;20347;-40
2021/11/18 08:52:17;;;;;;;12.90;7.53;;;7.60;99.90;;;7.75;71.71;98993.38;5023760;28;20087;-40
2021/11/18 08:54:56;;;;;;;14.00;6.87;;;7.60;99.90;;;7.83;71.71;98998.97;5024434;28;20067;-40
2021/11/18 08:57:26;;;;;;;13.93;7.97;;;7.70;99.90;;;7.78;71.79;98996.66;5025039;28;20072;-40
2021/11/18 09:00:27;;;;;;;13.47;7.93;;;7.70;99.90;;;7.83;71.53;98997.19;5026553;28;20338;-40
2021/11/18 09:03:17;;;;;;;;;;;7.70;99.90;;;7.86;71.37;98993.47;5031091;28;20057;-40
2021/11/18 09:05:47;;;;;;;14.70;7.43;;;7.70;99.90;;;7.87;71.47;98992.47;5031513;28;20134;-40
2021/11/18 09:08:16;;;;;;;12.37;7.10;;;7.70;99.90;;;7.87;71.48;98989.81;5032367;28;20053;-40
2021/11/18 09:10:51;;;;;;;11.70;7.00;;;7.70;99.90;;;7.82;71.11;98992.81;5024991;28;20067;-40
2021/11/18 09:13:20;;;;;;;11.37;7.53;;;7.70;99.90;;;7.81;71.19;98998.22;5031439;28;20053;-40
2021/11/18 09:15:53;;;;;;;11.60;7.10;;;7.60;99.90;;;7.80;71.70;98999.22;5032043;28;20339;-40
2021/11/18 09:18:24;;;;;;;12.82;7.53;;;7.60;99.90;;;7.82;71.61;99000.78;5031641;28;20053;-41
2021/11/18 09:20:56;;;;;;;14.37;7.73;;;7.60;99.90;;;7.86;71.33;98996.09;5032704;28;20071;-40
2021/11/18 09:23:34;;;;;;;14.00;8.17;;;7.70;99.90;;;7.93;71.71;98994.72;5044142;28;20051;-40
2021/11/18 09:26:12;;;;;;;11.60;7.67;;;7.80;99.90;;;7.99;71.51;98998.72;5039416;28;20057;-40
2021/11/18 09:28:46;;;;;;;11.70;7.80;;;7.90;99.90;;;7.99;71.51;99004.03;5050990;28;20059;-40
2021/11/18 09:31:23;;;;;;;13.57;8.77;;;7.90;99.90;;;8.02;71.37;98996.66;5054943;28;20044;-40
2021/11/18 09:33:53;;;;;;;13.83;8.03;;;7.90;99.90;;;7.99;71.40;99002.22;5070400;28;20382;-40
2021/11/18 09:36:24;;;;;;;15.13;8.27;;;7.90;99.90;;;7.95;71.22;99005.19;5055267;28;20068;-40
2021/11/18 09:38:55;;;;;;;12.77;7.73;;;7.80;99.90;;;7.96;71.08;99015.69;5053943;28;20049;-40
2021/11/18 09:41:26;;;;;;;12.77;8.75;;;7.80;99.90;;;7.95;71.05;99011.34;5070070;28;20053;-40
2021/11/18 09:44:32;;;;;;;12.43;8.33;;;7.80;99.90;;;8.01;71.23;99000.31;5055364;28;20335;-41
2021/11/18 09:47:13;;;;;;;12.50;8.00;;;7.90;99.90;;;8.07;70.80;99006.97;5039658;28;20323;-40
2021/11/18 09:50:19;;;;;;;9.83;6.97;;;8.00;99.90;;;7.99;71.16;99002.22;5055909;28;20053;-40
2021/11/18 09:53:45;;;;;;;10.93;7.60;;;7.80;99.90;;;7.99;71.27;99012.00;5062951;28;20059;-40
2021/11/18 09:56:28;;;;;;;12.00;7.03;;;7.80;99.90;;;8.04;71.16;99001.88;5040523;28;20071;-40
2021/11/18 09:59:41;;;;;;;14.10;7.47;;;7.90;99.90;;;8.09;71.02;99008.53;5053438;28;20037;-40
2021/11/18 10:02:45;;;;;;;10.23;7.17;;;8.00;99.90;;;8.18;71.17;99006.16;5057832;28;20247;-40
2021/11/18 10:05:27;;;;;;;9.95;7.10;;;8.10;99.90;;;8.26;71.23;99015.25;5075007;28;20138;-40
2021/11/18 10:08:16;;;;;;;12.47;8.13;;;8.20;99.90;;;8.37;71.00;99016.28;5057649;28;20053;-40
2021/11/18 10:11:19;;;;;;;12.17;6.43;;;8.30;99.90;;;8.38;70.99;99017.97;5057006;28;20049;-40
2021/11/18 10:14:06;;;;;;;12.00;7.03;;;8.40;99.90;;;8.45;70.79;99021.88;5058586;28;20053;-40
2021/11/18 10:16:54;;;;;;;11.00;8.67;;;8.40;99.90;;;8.45;70.75;99009.47;5058037;28;20053;-41
2021/11/18 10:19:39;;;;;;;10.67;7.00;;;8.40;99.90;;;8.47;70.84;99012.88;5042355;28;20049;-40
2021/11/18 10:22:10;;;;;;;11.97;7.60;;;8.40;99.90;;;8.51;70.78;99005.53;5059654;28;20067;-40
2021/11/18 10:24:43;;;;;;;11.50;7.17;;;8.40;99.90;;;8.54;70.54;99005.28;5061067;28;20043;-40
2021/11/18 10:27:24;;;;;;;9.83;7.13;;;8.50;99.90;;;8.47;70.63;99006.69;5056801;28;20111;-40
2021/11/18 10:30:31;;;;;;;12.17;7.37;;;8.40;99.80;;;8.43;70.30;99000.78;5050492;28;20055;-40
2021/11/18 10:33:14;;;;;;;10.37;7.10;;;8.30;99.30;;;8.44;70.30;98997.16;5057470;28;20044;-41
2021/11/18 10:39:54;;;;;;;11.17;7.47;;;8.40;99.80;;;8.44;69.86;98991.84;5056091;28;20055;-40
2021/11/18 10:42:48;;;;;;;11.60;7.53;;;8.40;99.00;;;8.50;70.46;98987.88;5059780;28;20053;-40
2021/11/18 10:45:37;;;;;;;9.88;6.68;;;8.40;99.90;;;8.53;70.26;98992.09;5058160;28;20041;-40
2021/11/18 10:48:16;;;;;;;12.23;7.60;;;8.40;99.70;;;8.40;70.01;98981.56;5053472;28;20267;-40
2021/11/18 10:51:06;;;;;;;10.60;6.57;;;8.30;99.00;;;8.43;70.06;98976.91;5057149;28;20041;-40
2021/11/18 10:53:58;;;;;;;12.23;7.63;;;8.30;99.80;;;8.47;70.07;98972.19;5055627;28;20053;-40
2021/11/18 10:56:58;;;;;;;11.60;7.47;;;8.40;99.90;;;8.50;70.14;98974.63;5056064;28;20040;-41
2021/11/18 10:59:40;;;;;;;12.97;9.37;;;8.40;99.80;;;8.53;70.01;98974.41;5043134;28;20045;-40
2021/11/18 11:02:31;;;;;;;13.57;7.70;;;8.40;99.60;;;8.51;69.84;98981.63;5027083;28;20079;-40
2021/11/18 11:05:21;;;;;;;13.10;8.93;;;8.40;99.90;;;8.50;69.88;98971.13;5028016;28;20059;-40